Terminal Aerodrome Forecast
Issued by NWS

Home | Current Version | Previous Version | Graphics & Text | Print | Product List | Glossary On
Versions: 1 2 3 4 5 6 7 8 9 10 11 12 13 14 15 16 17
000
FTUS43 KICT 112300
TAFHUT
TAF
KHUT 112327Z 1200/1224 18016G24KT P6SM SKC
     FM120100 17012KT P6SM SKC
     FM121500 20016G24KT P6SM SKC=

USA.gov is the U.S. government's official web portal to all federal, state and local government web resources and services.